sensor_id;sensor_type;location;lat;lon;timestamp;P1;durP1;ratioP1;P2;durP2;ratioP2
71562;SDS011;59391;52.504;13.438;2023-06-19T00:01:12;16.43;;;13.13;;
71562;SDS011;59391;52.504;13.438;2023-06-19T00:03:38;16.48;;;13.00;;
71562;SDS011;59391;52.504;13.438;2023-06-19T00:06:04;14.93;;;13.23;;
71562;SDS011;59391;52.504;13.438;2023-06-19T00:08:31;19.92;;;16.83;;
71562;SDS011;59391;52.504;13.438;2023-06-19T00:10:56;15.40;;;13.80;;
71562;SDS011;59391;52.504;13.438;2023-06-19T00:13:22;17.23;;;14.05;;
71562;SDS011;59391;52.504;13.438;2023-06-19T00:15:47;18.63;;;15.40;;
71562;SDS011;59391;52.504;13.438;2023-06-19T00:18:13;15.03;;;13.40;;
71562;SDS011;59391;52.504;13.438;2023-06-19T00:20:41;16.38;;;13.77;;
71562;SDS011;59391;52.504;13.438;2023-06-19T00:23:07;15.07;;;12.98;;
71562;SDS011;59391;52.504;13.438;2023-06-19T00:25:36;15.32;;;13.52;;
71562;SDS011;59391;52.504;13.438;2023-06-19T00:28:01;15.83;;;13.37;;
71562;SDS011;59391;52.504;13.438;2023-06-19T00:30:27;15.57;;;13.30;;
71562;SDS011;59391;52.504;13.438;2023-06-19T00:32:57;15.47;;;13.20;;
71562;SDS011;59391;52.504;13.438;2023-06-19T00:35:27;14.88;;;13.27;;
71562;SDS011;59391;52.504;13.438;2023-06-19T00:37:53;15.98;;;13.82;;
71562;SDS011;59391;52.504;13.438;2023-06-19T00:40:26;15.90;;;14.00;;
71562;SDS011;59391;52.504;13.438;2023-06-19T00:42:57;16.05;;;13.30;;
71562;SDS011;59391;52.504;13.438;2023-06-19T00:45:24;15.38;;;13.60;;
71562;SDS011;59391;52.504;13.438;2023-06-19T00:47:54;15.33;;;13.43;;
71562;SDS011;59391;52.504;13.438;2023-06-19T00:50:21;16.88;;;14.05;;
71562;SDS011;59391;52.504;13.438;2023-06-19T00:52:48;15.40;;;13.45;;
71562;SDS011;59391;52.504;13.438;2023-06-19T00:55:14;16.75;;;14.15;;
71562;SDS011;59391;52.504;13.438;2023-06-19T00:57:41;15.85;;;14.23;;
71562;SDS011;59391;52.504;13.438;2023-06-19T01:00:09;16.87;;;14.07;;
71562;SDS011;59391;52.504;13.438;2023-06-19T01:02:37;15.68;;;13.90;;
71562;SDS011;59391;52.504;13.438;2023-06-19T01:05:04;18.65;;;14.88;;
71562;SDS011;59391;52.504;13.438;2023-06-19T01:07:36;18.55;;;14.45;;
71562;SDS011;59391;52.504;13.438;2023-06-19T01:10:25;17.15;;;14.30;;
71562;SDS011;59391;52.504;13.438;2023-06-19T01:12:59;15.70;;;14.00;;
71562;SDS011;59391;52.504;13.438;2023-06-19T01:15:57;16.25;;;14.55;;
71562;SDS011;59391;52.504;13.438;2023-06-19T01:18:24;18.48;;;14.95;;
71562;SDS011;59391;52.504;13.438;2023-06-19T01:20:51;16.38;;;14.60;;
71562;SDS011;59391;52.504;13.438;2023-06-19T01:23:17;18.67;;;15.13;;
71562;SDS011;59391;52.504;13.438;2023-06-19T01:25:43;16.95;;;15.07;;
71562;SDS011;59391;52.504;13.438;2023-06-19T01:28:09;15.43;;;13.73;;
71562;SDS011;59391;52.504;13.438;2023-06-19T01:30:37;17.30;;;14.35;;
71562;SDS011;59391;52.504;13.438;2023-06-19T01:33:15;17.65;;;14.80;;
71562;SDS011;59391;52.504;13.438;2023-06-19T01:35:46;17.07;;;15.10;;
71562;SDS011;59391;52.504;13.438;2023-06-19T01:38:14;17.77;;;15.10;;
71562;SDS011;59391;52.504;13.438;2023-06-19T01:40:42;16.92;;;14.40;;
71562;SDS011;59391;52.504;13.438;2023-06-19T01:43:08;18.13;;;16.08;;
71562;SDS011;59391;52.504;13.438;2023-06-19T01:45:35;19.20;;;16.05;;
71562;SDS011;59391;52.504;13.438;2023-06-19T01:48:01;17.83;;;15.47;;
71562;SDS011;59391;52.504;13.438;2023-06-19T01:50:27;16.10;;;13.95;;
71562;SDS011;59391;52.504;13.438;2023-06-19T01:52:52;18.87;;;15.13;;
71562;SDS011;59391;52.504;13.438;2023-06-19T01:55:18;17.07;;;15.13;;
71562;SDS011;59391;52.504;13.438;2023-06-19T01:57:44;18.67;;;15.68;;
71562;SDS011;59391;52.504;13.438;2023-06-19T02:00:13;17.58;;;15.75;;
71562;SDS011;59391;52.504;13.438;2023-06-19T02:02:39;17.03;;;15.17;;
71562;SDS011;59391;52.504;13.438;2023-06-19T02:05:05;17.67;;;14.93;;
71562;SDS011;59391;52.504;13.438;2023-06-19T02:07:31;17.90;;;15.35;;
71562;SDS011;59391;52.504;13.438;2023-06-19T02:09:57;18.10;;;15.57;;
71562;SDS011;59391;52.504;13.438;2023-06-19T02:12:23;17.15;;;14.98;;
71562;SDS011;59391;52.504;13.438;2023-06-19T02:14:48;17.55;;;15.27;;
71562;SDS011;59391;52.504;13.438;2023-06-19T02:17:14;19.07;;;14.90;;
71562;SDS011;59391;52.504;13.438;2023-06-19T02:19:40;18.00;;;15.07;;
71562;SDS011;59391;52.504;13.438;2023-06-19T02:22:06;21.67;;;18.33;;
71562;SDS011;59391;52.504;13.438;2023-06-19T02:24:32;17.83;;;15.55;;
71562;SDS011;59391;52.504;13.438;2023-06-19T02:26:58;18.20;;;15.73;;
71562;SDS011;59391;52.504;13.438;2023-06-19T02:29:23;18.15;;;15.82;;
71562;SDS011;59391;52.504;13.438;2023-06-19T02:31:50;18.08;;;16.08;;
71562;SDS011;59391;52.504;13.438;2023-06-19T02:34:16;17.97;;;15.40;;
71562;SDS011;59391;52.504;13.438;2023-06-19T02:36:42;36.88;;;29.08;;
71562;SDS011;59391;52.504;13.438;2023-06-19T02:39:08;19.07;;;16.37;;
71562;SDS011;59391;52.504;13.438;2023-06-19T02:41:34;17.93;;;15.63;;
71562;SDS011;59391;52.504;13.438;2023-06-19T02:44:00;18.63;;;16.15;;
71562;SDS011;59391;52.504;13.438;2023-06-19T02:46:26;18.27;;;16.13;;
71562;SDS011;59391;52.504;13.438;2023-06-19T02:48:52;18.00;;;15.73;;
71562;SDS011;59391;52.504;13.438;2023-06-19T02:51:18;19.15;;;16.27;;
71562;SDS011;59391;52.504;13.438;2023-06-19T02:53:43;19.37;;;15.93;;
71562;SDS011;59391;52.504;13.438;2023-06-19T02:56:09;19.20;;;16.27;;
71562;SDS011;59391;52.504;13.438;2023-06-19T02:58:36;18.20;;;16.10;;
71562;SDS011;59391;52.504;13.438;2023-06-19T03:01:02;17.88;;;15.90;;
71562;SDS011;59391;52.504;13.438;2023-06-19T03:03:28;18.25;;;15.50;;
71562;SDS011;59391;52.504;13.438;2023-06-19T03:05:54;18.95;;;15.85;;
71562;SDS011;59391;52.504;13.438;2023-06-19T03:08:20;19.23;;;16.13;;
71562;SDS011;59391;52.504;13.438;2023-06-19T03:10:46;18.17;;;15.83;;
71562;SDS011;59391;52.504;13.438;2023-06-19T03:13:12;18.33;;;16.10;;
71562;SDS011;59391;52.504;13.438;2023-06-19T03:15:38;19.92;;;15.98;;
71562;SDS011;59391;52.504;13.438;2023-06-19T03:18:04;17.50;;;15.63;;
71562;SDS011;59391;52.504;13.438;2023-06-19T03:20:32;23.10;;;18.70;;
71562;SDS011;59391;52.504;13.438;2023-06-19T03:22:58;23.13;;;18.60;;
71562;SDS011;59391;52.504;13.438;2023-06-19T03:25:23;22.50;;;17.27;;
71562;SDS011;59391;52.504;13.438;2023-06-19T03:27:49;19.63;;;15.67;;
71562;SDS011;59391;52.504;13.438;2023-06-19T03:30:15;19.35;;;16.20;;
71562;SDS011;59391;52.504;13.438;2023-06-19T03:32:43;18.52;;;15.95;;
71562;SDS011;59391;52.504;13.438;2023-06-19T03:35:09;18.15;;;16.13;;
71562;SDS011;59391;52.504;13.438;2023-06-19T03:37:35;21.40;;;16.07;;
71562;SDS011;59391;52.504;13.438;2023-06-19T03:40:01;19.52;;;16.15;;
71562;SDS011;59391;52.504;13.438;2023-06-19T03:42:28;18.92;;;15.80;;
71562;SDS011;59391;52.504;13.438;2023-06-19T03:44:54;19.02;;;16.77;;
71562;SDS011;59391;52.504;13.438;2023-06-19T03:47:21;20.93;;;17.63;;
71562;SDS011;59391;52.504;13.438;2023-06-19T03:49:46;21.40;;;17.75;;
71562;SDS011;59391;52.504;13.438;2023-06-19T03:52:13;19.70;;;16.17;;
71562;SDS011;59391;52.504;13.438;2023-06-19T03:54:39;20.63;;;16.63;;
71562;SDS011;59391;52.504;13.438;2023-06-19T03:57:04;18.67;;;16.67;;
71562;SDS011;59391;52.504;13.438;2023-06-19T03:59:31;19.00;;;16.92;;
71562;SDS011;59391;52.504;13.438;2023-06-19T04:01:56;19.45;;;16.40;;
71562;SDS011;59391;52.504;13.438;2023-06-19T04:04:22;19.83;;;16.63;;
71562;SDS011;59391;52.504;13.438;2023-06-19T04:06:48;18.30;;;16.10;;
71562;SDS011;59391;52.504;13.438;2023-06-19T04:09:13;18.13;;;16.15;;
71562;SDS011;59391;52.504;13.438;2023-06-19T04:11:39;19.53;;;16.17;;
71562;SDS011;59391;52.504;13.438;2023-06-19T04:14:05;21.98;;;17.08;;
71562;SDS011;59391;52.504;13.438;2023-06-19T04:16:30;19.40;;;16.37;;
71562;SDS011;59391;52.504;13.438;2023-06-19T04:18:56;21.67;;;17.30;;
71562;SDS011;59391;52.504;13.438;2023-06-19T04:21:21;19.23;;;16.50;;
71562;SDS011;59391;52.504;13.438;2023-06-19T04:23:47;19.17;;;16.50;;
71562;SDS011;59391;52.504;13.438;2023-06-19T04:26:13;18.77;;;15.88;;
71562;SDS011;59391;52.504;13.438;2023-06-19T04:28:38;21.00;;;17.03;;
71562;SDS011;59391;52.504;13.438;2023-06-19T04:31:04;20.90;;;17.20;;
71562;SDS011;59391;52.504;13.438;2023-06-19T04:33:30;19.55;;;16.92;;
71562;SDS011;59391;52.504;13.438;2023-06-19T04:35:57;18.90;;;16.90;;
71562;SDS011;59391;52.504;13.438;2023-06-19T04:38:22;21.88;;;16.80;;
71562;SDS011;59391;52.504;13.438;2023-06-19T04:40:50;19.85;;;16.25;;
71562;SDS011;59391;52.504;13.438;2023-06-19T04:43:16;20.53;;;17.60;;
71562;SDS011;59391;52.504;13.438;2023-06-19T04:45:42;18.92;;;16.60;;
71562;SDS011;59391;52.504;13.438;2023-06-19T04:48:07;19.77;;;16.57;;
71562;SDS011;59391;52.504;13.438;2023-06-19T04:50:33;18.33;;;15.65;;
71562;SDS011;59391;52.504;13.438;2023-06-19T04:52:59;18.55;;;15.93;;
71562;SDS011;59391;52.504;13.438;2023-06-19T04:55:25;19.10;;;16.60;;
71562;SDS011;59391;52.504;13.438;2023-06-19T04:57:50;21.17;;;17.17;;
71562;SDS011;59391;52.504;13.438;2023-06-19T05:00:16;18.45;;;15.60;;
71562;SDS011;59391;52.504;13.438;2023-06-19T05:02:44;21.60;;;17.33;;
71562;SDS011;59391;52.504;13.438;2023-06-19T05:05:12;19.58;;;16.42;;
71562;SDS011;59391;52.504;13.438;2023-06-19T05:07:38;19.67;;;15.63;;
71562;SDS011;59391;52.504;13.438;2023-06-19T05:10:05;19.23;;;16.52;;
71562;SDS011;59391;52.504;13.438;2023-06-19T05:12:32;20.90;;;17.10;;
71562;SDS011;59391;52.504;13.438;2023-06-19T05:14:59;20.70;;;16.88;;
71562;SDS011;59391;52.504;13.438;2023-06-19T05:17:25;19.83;;;16.33;;
71562;SDS011;59391;52.504;13.438;2023-06-19T05:19:51;19.90;;;16.83;;
71562;SDS011;59391;52.504;13.438;2023-06-19T05:22:16;21.30;;;17.37;;
71562;SDS011;59391;52.504;13.438;2023-06-19T05:24:43;20.55;;;17.05;;
71562;SDS011;59391;52.504;13.438;2023-06-19T05:27:09;20.23;;;16.85;;
71562;SDS011;59391;52.504;13.438;2023-06-19T05:29:35;21.70;;;17.27;;
71562;SDS011;59391;52.504;13.438;2023-06-19T05:32:01;19.13;;;16.93;;
71562;SDS011;59391;52.504;13.438;2023-06-19T05:34:27;22.10;;;17.60;;
71562;SDS011;59391;52.504;13.438;2023-06-19T05:36:53;19.40;;;16.47;;
71562;SDS011;59391;52.504;13.438;2023-06-19T05:39:18;19.10;;;17.00;;
71562;SDS011;59391;52.504;13.438;2023-06-19T05:41:44;20.77;;;18.07;;
71562;SDS011;59391;52.504;13.438;2023-06-19T05:44:13;21.30;;;17.70;;
71562;SDS011;59391;52.504;13.438;2023-06-19T05:46:41;22.90;;;18.08;;
71562;SDS011;59391;52.504;13.438;2023-06-19T05:49:06;22.38;;;17.95;;
71562;SDS011;59391;52.504;13.438;2023-06-19T05:51:32;22.57;;;17.23;;
71562;SDS011;59391;52.504;13.438;2023-06-19T05:53:58;22.65;;;18.27;;
71562;SDS011;59391;52.504;13.438;2023-06-19T05:56:31;20.42;;;17.75;;
71562;SDS011;59391;52.504;13.438;2023-06-19T05:58:58;23.60;;;19.07;;
71562;SDS011;59391;52.504;13.438;2023-06-19T06:01:33;22.05;;;18.40;;
71562;SDS011;59391;52.504;13.438;2023-06-19T06:04:02;22.80;;;19.38;;
71562;SDS011;59391;52.504;13.438;2023-06-19T06:06:31;20.73;;;18.08;;
71562;SDS011;59391;52.504;13.438;2023-06-19T06:08:56;23.27;;;18.67;;
71562;SDS011;59391;52.504;13.438;2023-06-19T06:11:22;26.25;;;18.80;;
71562;SDS011;59391;52.504;13.438;2023-06-19T06:13:48;22.47;;;17.83;;
71562;SDS011;59391;52.504;13.438;2023-06-19T06:16:14;24.58;;;18.30;;
71562;SDS011;59391;52.504;13.438;2023-06-19T06:18:40;22.50;;;18.33;;
71562;SDS011;59391;52.504;13.438;2023-06-19T06:21:06;24.33;;;18.27;;
71562;SDS011;59391;52.504;13.438;2023-06-19T06:23:31;23.27;;;17.60;;
71562;SDS011;59391;52.504;13.438;2023-06-19T06:25:57;24.58;;;18.38;;
71562;SDS011;59391;52.504;13.438;2023-06-19T06:28:27;20.95;;;17.55;;
71562;SDS011;59391;52.504;13.438;2023-06-19T06:30:53;24.13;;;18.50;;
71562;SDS011;59391;52.504;13.438;2023-06-19T06:33:19;22.07;;;17.80;;
71562;SDS011;59391;52.504;13.438;2023-06-19T06:35:45;20.00;;;17.83;;
71562;SDS011;59391;52.504;13.438;2023-06-19T06:38:11;21.03;;;17.83;;
71562;SDS011;59391;52.504;13.438;2023-06-19T06:40:36;23.55;;;18.33;;
71562;SDS011;59391;52.504;13.438;2023-06-19T06:43:02;22.60;;;19.20;;
71562;SDS011;59391;52.504;13.438;2023-06-19T06:45:28;24.02;;;18.52;;
71562;SDS011;59391;52.504;13.438;2023-06-19T06:47:54;21.30;;;17.93;;
71562;SDS011;59391;52.504;13.438;2023-06-19T06:50:19;23.15;;;18.30;;
71562;SDS011;59391;52.504;13.438;2023-06-19T06:52:45;24.17;;;18.27;;
71562;SDS011;59391;52.504;13.438;2023-06-19T06:55:16;21.67;;;17.48;;
71562;SDS011;59391;52.504;13.438;2023-06-19T06:57:41;22.92;;;17.92;;
71562;SDS011;59391;52.504;13.438;2023-06-19T07:00:07;21.53;;;18.33;;
71562;SDS011;59391;52.504;13.438;2023-06-19T07:02:37;19.90;;;17.60;;
71562;SDS011;59391;52.504;13.438;2023-06-19T07:05:03;20.38;;;17.27;;
71562;SDS011;59391;52.504;13.438;2023-06-19T07:07:29;22.63;;;18.00;;
71562;SDS011;59391;52.504;13.438;2023-06-19T07:09:55;21.38;;;17.20;;
71562;SDS011;59391;52.504;13.438;2023-06-19T07:12:20;19.83;;;17.30;;
71562;SDS011;59391;52.504;13.438;2023-06-19T07:14:46;22.55;;;18.13;;
71562;SDS011;59391;52.504;13.438;2023-06-19T07:17:12;21.83;;;17.90;;
71562;SDS011;59391;52.504;13.438;2023-06-19T07:19:37;22.52;;;18.70;;
71562;SDS011;59391;52.504;13.438;2023-06-19T07:22:03;22.73;;;18.20;;
71562;SDS011;59391;52.504;13.438;2023-06-19T07:24:29;21.00;;;18.17;;
71562;SDS011;59391;52.504;13.438;2023-06-19T07:26:55;20.37;;;18.07;;
71562;SDS011;59391;52.504;13.438;2023-06-19T07:29:21;23.30;;;18.83;;
71562;SDS011;59391;52.504;13.438;2023-06-19T07:31:47;23.17;;;18.13;;
71562;SDS011;59391;52.504;13.438;2023-06-19T07:34:13;22.20;;;17.63;;
71562;SDS011;59391;52.504;13.438;2023-06-19T07:36:39;21.73;;;16.75;;
71562;SDS011;59391;52.504;13.438;2023-06-19T07:39:04;19.10;;;17.00;;
71562;SDS011;59391;52.504;13.438;2023-06-19T07:41:30;21.17;;;16.93;;
71562;SDS011;59391;52.504;13.438;2023-06-19T07:43:56;18.75;;;16.27;;
71562;SDS011;59391;52.504;13.438;2023-06-19T07:46:21;19.93;;;16.77;;
71562;SDS011;59391;52.504;13.438;2023-06-19T07:48:47;20.70;;;16.97;;
71562;SDS011;59391;52.504;13.438;2023-06-19T07:51:13;18.53;;;16.07;;
71562;SDS011;59391;52.504;13.438;2023-06-19T07:53:38;19.25;;;16.23;;
71562;SDS011;59391;52.504;13.438;2023-06-19T07:56:04;22.90;;;17.67;;
71562;SDS011;59391;52.504;13.438;2023-06-19T07:58:30;21.45;;;17.05;;
71562;SDS011;59391;52.504;13.438;2023-06-19T08:00:56;21.77;;;17.17;;
71562;SDS011;59391;52.504;13.438;2023-06-19T08:03:21;19.92;;;16.58;;
71562;SDS011;59391;52.504;13.438;2023-06-19T08:05:49;18.92;;;16.35;;
71562;SDS011;59391;52.504;13.438;2023-06-19T08:08:30;20.87;;;17.10;;
71562;SDS011;59391;52.504;13.438;2023-06-19T08:10:59;20.38;;;16.48;;
71562;SDS011;59391;52.504;13.438;2023-06-19T08:13:24;19.73;;;16.30;;
71562;SDS011;59391;52.504;13.438;2023-06-19T08:15:50;19.05;;;15.93;;
71562;SDS011;59391;52.504;13.438;2023-06-19T08:18:16;18.77;;;15.57;;
71562;SDS011;59391;52.504;13.438;2023-06-19T08:20:42;18.80;;;15.77;;
71562;SDS011;59391;52.504;13.438;2023-06-19T08:23:08;17.53;;;15.30;;
71562;SDS011;59391;52.504;13.438;2023-06-19T08:25:33;17.85;;;15.80;;
71562;SDS011;59391;52.504;13.438;2023-06-19T08:27:59;19.40;;;15.50;;
71562;SDS011;59391;52.504;13.438;2023-06-19T08:30:25;17.75;;;15.00;;
71562;SDS011;59391;52.504;13.438;2023-06-19T08:32:51;19.25;;;15.70;;
71562;SDS011;59391;52.504;13.438;2023-06-19T08:35:19;18.30;;;15.77;;
71562;SDS011;59391;52.504;13.438;2023-06-19T08:37:44;17.95;;;14.85;;
71562;SDS011;59391;52.504;13.438;2023-06-19T08:40:11;18.73;;;15.40;;
71562;SDS011;59391;52.504;13.438;2023-06-19T08:42:37;23.02;;;15.80;;
71562;SDS011;59391;52.504;13.438;2023-06-19T08:45:04;17.40;;;15.10;;
71562;SDS011;59391;52.504;13.438;2023-06-19T08:48:03;18.27;;;14.48;;
71562;SDS011;59391;52.504;13.438;2023-06-19T08:50:49;22.50;;;16.55;;
71562;SDS011;59391;52.504;13.438;2023-06-19T08:53:15;21.50;;;15.67;;
71562;SDS011;59391;52.504;13.438;2023-06-19T08:55:50;19.35;;;15.27;;
71562;SDS011;59391;52.504;13.438;2023-06-19T08:58:22;19.30;;;15.18;;
71562;SDS011;59391;52.504;13.438;2023-06-19T09:00:49;22.17;;;16.10;;
71562;SDS011;59391;52.504;13.438;2023-06-19T09:03:20;20.77;;;15.83;;
71562;SDS011;59391;52.504;13.438;2023-06-19T09:05:48;18.30;;;15.18;;
71562;SDS011;59391;52.504;13.438;2023-06-19T09:08:17;20.10;;;16.63;;
71562;SDS011;59391;52.504;13.438;2023-06-19T09:10:57;17.95;;;15.63;;
71562;SDS011;59391;52.504;13.438;2023-06-19T09:13:29;19.48;;;14.95;;
71562;SDS011;59391;52.504;13.438;2023-06-19T09:18:45;21.67;;;16.00;;
71562;SDS011;59391;52.504;13.438;2023-06-19T09:21:16;19.95;;;15.45;;
71562;SDS011;59391;52.504;13.438;2023-06-19T09:23:44;22.23;;;15.07;;
71562;SDS011;59391;52.504;13.438;2023-06-19T09:26:15;18.80;;;14.85;;
71562;SDS011;59391;52.504;13.438;2023-06-19T09:28:43;18.17;;;15.43;;
71562;SDS011;59391;52.504;13.438;2023-06-19T09:31:08;19.08;;;15.52;;
71562;SDS011;59391;52.504;13.438;2023-06-19T09:33:35;18.70;;;15.27;;
71562;SDS011;59391;52.504;13.438;2023-06-19T09:36:03;21.10;;;16.42;;
71562;SDS011;59391;52.504;13.438;2023-06-19T09:38:31;18.75;;;15.60;;
71562;SDS011;59391;52.504;13.438;2023-06-19T09:41:00;15.77;;;14.07;;
71562;SDS011;59391;52.504;13.438;2023-06-19T09:43:34;18.50;;;15.02;;
71562;SDS011;59391;52.504;13.438;2023-06-19T09:46:07;18.33;;;16.00;;
71562;SDS011;59391;52.504;13.438;2023-06-19T09:48:34;19.95;;;16.60;;
71562;SDS011;59391;52.504;13.438;2023-06-19T09:51:09;18.13;;;15.73;;
71562;SDS011;59391;52.504;13.438;2023-06-19T09:54:00;17.50;;;15.00;;
71562;SDS011;59391;52.504;13.438;2023-06-19T09:56:29;19.63;;;15.60;;
71562;SDS011;59391;52.504;13.438;2023-06-19T09:58:56;18.60;;;15.07;;
71562;SDS011;59391;52.504;13.438;2023-06-19T10:01:25;16.95;;;15.07;;
71562;SDS011;59391;52.504;13.438;2023-06-19T10:04:05;18.67;;;15.50;;
71562;SDS011;59391;52.504;13.438;2023-06-19T10:06:32;16.33;;;14.63;;
71562;SDS011;59391;52.504;13.438;2023-06-19T10:09:16;18.60;;;15.43;;
71562;SDS011;59391;52.504;13.438;2023-06-19T10:11:48;18.45;;;14.93;;
71562;SDS011;59391;52.504;13.438;2023-06-19T10:14:21;20.00;;;16.67;;
71562;SDS011;59391;52.504;13.438;2023-06-19T10:16:51;18.42;;;15.70;;
71562;SDS011;59391;52.504;13.438;2023-06-19T10:19:20;20.50;;;16.77;;
71562;SDS011;59391;52.504;13.438;2023-06-19T10:21:50;18.70;;;16.77;;
71562;SDS011;59391;52.504;13.438;2023-06-19T10:24:18;18.42;;;16.10;;
71562;SDS011;59391;52.504;13.438;2023-06-19T10:27:01;20.00;;;17.13;;
71562;SDS011;59391;52.504;13.438;2023-06-19T10:29:40;20.00;;;17.23;;
71562;SDS011;59391;52.504;13.438;2023-06-19T10:32:16;19.87;;;16.33;;
71562;SDS011;59391;52.504;13.438;2023-06-19T10:34:44;19.73;;;16.00;;
71562;SDS011;59391;52.504;13.438;2023-06-19T10:37:12;20.00;;;16.35;;
71562;SDS011;59391;52.504;13.438;2023-06-19T10:39:38;18.03;;;15.37;;
71562;SDS011;59391;52.504;13.438;2023-06-19T10:42:08;17.85;;;15.95;;
71562;SDS011;59391;52.504;13.438;2023-06-19T10:44:35;19.73;;;16.23;;
71562;SDS011;59391;52.504;13.438;2023-06-19T10:47:04;19.10;;;15.63;;
71562;SDS011;59391;52.504;13.438;2023-06-19T10:49:32;18.60;;;16.38;;
71562;SDS011;59391;52.504;13.438;2023-06-19T10:51:58;19.33;;;16.50;;
71562;SDS011;59391;52.504;13.438;2023-06-19T10:54:25;21.10;;;16.42;;
71562;SDS011;59391;52.504;13.438;2023-06-19T10:56:53;20.63;;;15.40;;
71562;SDS011;59391;52.504;13.438;2023-06-19T10:59:19;18.15;;;15.60;;
71562;SDS011;59391;52.504;13.438;2023-06-19T11:01:45;16.75;;;14.98;;
71562;SDS011;59391;52.504;13.438;2023-06-19T11:04:14;16.63;;;14.93;;
71562;SDS011;59391;52.504;13.438;2023-06-19T11:06:41;16.70;;;14.70;;
71562;SDS011;59391;52.504;13.438;2023-06-19T11:09:12;16.85;;;14.98;;
71562;SDS011;59391;52.504;13.438;2023-06-19T11:11:42;17.85;;;14.35;;
71562;SDS011;59391;52.504;13.438;2023-06-19T11:14:10;16.38;;;14.68;;
71562;SDS011;59391;52.504;13.438;2023-06-19T11:16:38;16.80;;;14.37;;
71562;SDS011;59391;52.504;13.438;2023-06-19T11:19:07;16.42;;;14.82;;
71562;SDS011;59391;52.504;13.438;2023-06-19T11:21:35;15.80;;;14.15;;
71562;SDS011;59391;52.504;13.438;2023-06-19T11:24:04;16.27;;;13.98;;
71562;SDS011;59391;52.504;13.438;2023-06-19T11:26:40;16.42;;;13.90;;
71562;SDS011;59391;52.504;13.438;2023-06-19T11:29:19;16.53;;;14.00;;
71562;SDS011;59391;52.504;13.438;2023-06-19T11:31:49;15.88;;;14.18;;
71562;SDS011;59391;52.504;13.438;2023-06-19T11:34:19;16.00;;;13.52;;
71562;SDS011;59391;52.504;13.438;2023-06-19T11:36:55;17.55;;;14.32;;
71562;SDS011;59391;52.504;13.438;2023-06-19T11:39:21;14.77;;;13.17;;
71562;SDS011;59391;52.504;13.438;2023-06-19T11:41:47;15.02;;;13.43;;
71562;SDS011;59391;52.504;13.438;2023-06-19T11:44:13;15.07;;;12.80;;
71562;SDS011;59391;52.504;13.438;2023-06-19T11:46:39;15.52;;;13.32;;
71562;SDS011;59391;52.504;13.438;2023-06-19T11:49:15;15.65;;;13.43;;
71562;SDS011;59391;52.504;13.438;2023-06-19T11:51:45;16.70;;;13.57;;
71562;SDS011;59391;52.504;13.438;2023-06-19T11:54:12;14.63;;;13.00;;
71562;SDS011;59391;52.504;13.438;2023-06-19T11:56:42;14.98;;;13.32;;
71562;SDS011;59391;52.504;13.438;2023-06-19T11:59:09;13.93;;;12.50;;
71562;SDS011;59391;52.504;13.438;2023-06-19T12:01:36;14.85;;;13.00;;
71562;SDS011;59391;52.504;13.438;2023-06-19T12:04:02;15.00;;;13.40;;
71562;SDS011;59391;52.504;13.438;2023-06-19T12:06:31;17.13;;;15.37;;
71562;SDS011;59391;52.504;13.438;2023-06-19T12:08:57;14.43;;;12.93;;
71562;SDS011;59391;52.504;13.438;2023-06-19T12:11:24;14.45;;;12.43;;
71562;SDS011;59391;52.504;13.438;2023-06-19T12:13:49;14.85;;;12.60;;
71562;SDS011;59391;52.504;13.438;2023-06-19T12:16:18;13.33;;;11.63;;
71562;SDS011;59391;52.504;13.438;2023-06-19T12:18:47;13.98;;;12.32;;
71562;SDS011;59391;52.504;13.438;2023-06-19T12:21:14;13.35;;;11.95;;
71562;SDS011;59391;52.504;13.438;2023-06-19T12:23:39;12.67;;;11.33;;
71562;SDS011;59391;52.504;13.438;2023-06-19T12:26:05;13.27;;;11.33;;
71562;SDS011;59391;52.504;13.438;2023-06-19T12:28:30;14.35;;;11.75;;
71562;SDS011;59391;52.504;13.438;2023-06-19T12:30:56;12.20;;;10.80;;
71562;SDS011;59391;52.504;13.438;2023-06-19T12:33:23;13.23;;;11.50;;
71562;SDS011;59391;52.504;13.438;2023-06-19T12:35:49;12.90;;;11.50;;
71562;SDS011;59391;52.504;13.438;2023-06-19T12:38:15;12.82;;;10.73;;
71562;SDS011;59391;52.504;13.438;2023-06-19T12:40:40;13.07;;;11.40;;
71562;SDS011;59391;52.504;13.438;2023-06-19T12:43:07;12.18;;;10.82;;
71562;SDS011;59391;52.504;13.438;2023-06-19T12:45:32;14.67;;;10.60;;
71562;SDS011;59391;52.504;13.438;2023-06-19T12:47:58;12.63;;;11.10;;
71562;SDS011;59391;52.504;13.438;2023-06-19T12:50:24;12.40;;;11.10;;
71562;SDS011;59391;52.504;13.438;2023-06-19T12:52:50;13.57;;;12.13;;
71562;SDS011;59391;52.504;13.438;2023-06-19T12:55:16;12.93;;;11.32;;
71562;SDS011;59391;52.504;13.438;2023-06-19T12:57:42;13.23;;;11.48;;
71562;SDS011;59391;52.504;13.438;2023-06-19T13:00:10;12.20;;;10.90;;
71562;SDS011;59391;52.504;13.438;2023-06-19T13:02:38;12.57;;;11.02;;
71562;SDS011;59391;52.504;13.438;2023-06-19T13:05:08;14.27;;;11.35;;
71562;SDS011;59391;52.504;13.438;2023-06-19T13:07:36;13.25;;;11.13;;
71562;SDS011;59391;52.504;13.438;2023-06-19T13:10:02;11.83;;;10.43;;
71562;SDS011;59391;52.504;13.438;2023-06-19T13:12:30;11.88;;;10.68;;
71562;SDS011;59391;52.504;13.438;2023-06-19T13:14:57;14.65;;;11.50;;
71562;SDS011;59391;52.504;13.438;2023-06-19T13:17:23;14.73;;;11.23;;
71562;SDS011;59391;52.504;13.438;2023-06-19T13:19:49;13.20;;;11.27;;
71562;SDS011;59391;52.504;13.438;2023-06-19T13:22:15;11.17;;;9.97;;
71562;SDS011;59391;52.504;13.438;2023-06-19T13:24:40;11.40;;;9.97;;
71562;SDS011;59391;52.504;13.438;2023-06-19T13:27:06;12.17;;;10.00;;
71562;SDS011;59391;52.504;13.438;2023-06-19T13:29:32;13.30;;;10.30;;
71562;SDS011;59391;52.504;13.438;2023-06-19T13:31:57;12.15;;;10.75;;
71562;SDS011;59391;52.504;13.438;2023-06-19T13:34:23;13.13;;;11.20;;
71562;SDS011;59391;52.504;13.438;2023-06-19T13:36:49;14.48;;;12.07;;
71562;SDS011;59391;52.504;13.438;2023-06-19T13:39:14;13.33;;;11.60;;
71562;SDS011;59391;52.504;13.438;2023-06-19T13:41:43;13.82;;;11.88;;
71562;SDS011;59391;52.504;13.438;2023-06-19T13:44:09;13.43;;;12.02;;
71562;SDS011;59391;52.504;13.438;2023-06-19T13:46:37;13.52;;;12.13;;
71562;SDS011;59391;52.504;13.438;2023-06-19T13:49:03;15.70;;;11.93;;
71562;SDS011;59391;52.504;13.438;2023-06-19T13:51:29;14.95;;;12.20;;
71562;SDS011;59391;52.504;13.438;2023-06-19T13:53:54;14.27;;;12.45;;
71562;SDS011;59391;52.504;13.438;2023-06-19T13:56:20;13.43;;;11.57;;
71562;SDS011;59391;52.504;13.438;2023-06-19T13:58:48;12.65;;;11.30;;
71562;SDS011;59391;52.504;13.438;2023-06-19T14:01:14;13.82;;;11.70;;
71562;SDS011;59391;52.504;13.438;2023-06-19T14:03:40;14.13;;;12.07;;
71562;SDS011;59391;52.504;13.438;2023-06-19T14:06:06;14.52;;;13.02;;
71562;SDS011;59391;52.504;13.438;2023-06-19T14:08:33;14.15;;;12.65;;
71562;SDS011;59391;52.504;13.438;2023-06-19T14:10:58;16.10;;;12.50;;
71562;SDS011;59391;52.504;13.438;2023-06-19T14:13:25;15.30;;;12.80;;